sensor_id;sensor_type;location;lat;lon;timestamp;temperature;humidity
66150;DHT22;52952;50.904;20.648;2022-07-24T00:00:19;23;73
66150;DHT22;52952;50.904;20.648;2022-07-24T00:07:15;23;71
66150;DHT22;52952;50.904;20.648;2022-07-24T00:14:18;23;71
66150;DHT22;52952;50.904;20.648;2022-07-24T00:21:08;23;71
66150;DHT22;52952;50.904;20.648;2022-07-24T00:28:17;23;71
66150;DHT22;52952;50.904;20.648;2022-07-24T00:42:07;23;71
66150;DHT22;52952;50.904;20.648;2022-07-24T00:49:19;23;71
66150;DHT22;52952;50.904;20.648;2022-07-24T00:56:15;23;71
66150;DHT22;52952;50.904;20.648;2022-07-24T01:00:25;23;71
66150;DHT22;52952;50.904;20.648;2022-07-24T01:07:14;22;71
66150;DHT22;52952;50.904;20.648;2022-07-24T01:14:19;22;71
66150;DHT22;52952;50.904;20.648;2022-07-24T01:21:08;22;71
66150;DHT22;52952;50.904;20.648;2022-07-24T01:28:03;22;71
66150;DHT22;52952;50.904;20.648;2022-07-24T01:35:19;25;80
66150;DHT22;52952;50.904;20.648;2022-07-24T01:42:17;25;80
66150;DHT22;52952;50.904;20.648;2022-07-24T01:49:22;25;80
66150;DHT22;52952;50.904;20.648;2022-07-24T01:56:04;25;80
66150;DHT22;52952;50.904;20.648;2022-07-24T02:00:27;25;80
66150;DHT22;52952;50.904;20.648;2022-07-24T02:07:18;24;85
66150;DHT22;52952;50.904;20.648;2022-07-24T02:14:08;24;85
66150;DHT22;52952;50.904;20.648;2022-07-24T02:21:03;24;85
66150;DHT22;52952;50.904;20.648;2022-07-24T02:28:05;24;85
66150;DHT22;52952;50.904;20.648;2022-07-24T02:35:05;25;76
66150;DHT22;52952;50.904;20.648;2022-07-24T02:42:15;25;76
66150;DHT22;52952;50.904;20.648;2022-07-24T02:49:20;25;76
66150;DHT22;52952;50.904;20.648;2022-07-24T02:56:05;25;76
66150;DHT22;52952;50.904;20.648;2022-07-24T03:00:29;25;76
66150;DHT22;52952;50.904;20.648;2022-07-24T03:07:07;25;80
66150;DHT22;52952;50.904;20.648;2022-07-24T03:14:02;25;80
66150;DHT22;52952;50.904;20.648;2022-07-24T03:21:06;25;80
66150;DHT22;52952;50.904;20.648;2022-07-24T03:28:16;25;80
66150;DHT22;52952;50.904;20.648;2022-07-24T03:35:20;25;82
66150;DHT22;52952;50.904;20.648;2022-07-24T03:42:04;25;82
66150;DHT22;52952;50.904;20.648;2022-07-24T03:49:02;25;82
66150;DHT22;52952;50.904;20.648;2022-07-24T03:56:10;25;82
66150;DHT22;52952;50.904;20.648;2022-07-24T04:00:15;25;82
66150;DHT22;52952;50.904;20.648;2022-07-24T04:07:04;24;84
66150;DHT22;52952;50.904;20.648;2022-07-24T04:14:05;24;84
66150;DHT22;52952;50.904;20.648;2022-07-24T04:21:16;24;84
66150;DHT22;52952;50.904;20.648;2022-07-24T04:28:18;24;84
66150;DHT22;52952;50.904;20.648;2022-07-24T04:35:17;24;86
66150;DHT22;52952;50.904;20.648;2022-07-24T04:42:02;24;86
66150;DHT22;52952;50.904;20.648;2022-07-24T04:49:22;24;86
66150;DHT22;52952;50.904;20.648;2022-07-24T04:56:08;24;86
66150;DHT22;52952;50.904;20.648;2022-07-24T05:00:29;24;86
66150;DHT22;52952;50.904;20.648;2022-07-24T05:07:16;24;87
66150;DHT22;52952;50.904;20.648;2022-07-24T05:14:16;24;87
66150;DHT22;52952;50.904;20.648;2022-07-24T05:21:04;24;87
66150;DHT22;52952;50.904;20.648;2022-07-24T05:28:19;24;87
66150;DHT22;52952;50.904;20.648;2022-07-24T05:35:08;24;87
66150;DHT22;52952;50.904;20.648;2022-07-24T05:42:17;24;87
66150;DHT22;52952;50.904;20.648;2022-07-24T05:49:04;24;87
66150;DHT22;52952;50.904;20.648;2022-07-24T05:56:16;24;87
66150;DHT22;52952;50.904;20.648;2022-07-24T06:00:07;24;87
66150;DHT22;52952;50.904;20.648;2022-07-24T06:07:18;23;87
66150;DHT22;52952;50.904;20.648;2022-07-24T06:14:02;23;87
66150;DHT22;52952;50.904;20.648;2022-07-24T06:21:18;23;87
66150;DHT22;52952;50.904;20.648;2022-07-24T06:28:03;23;87
66150;DHT22;52952;50.904;20.648;2022-07-24T06:35:20;23;88
66150;DHT22;52952;50.904;20.648;2022-07-24T06:42:17;23;88
66150;DHT22;52952;50.904;20.648;2022-07-24T06:49:23;23;88
66150;DHT22;52952;50.904;20.648;2022-07-24T06:56:04;23;88
66150;DHT22;52952;50.904;20.648;2022-07-24T07:00:15;23;88
66150;DHT22;52952;50.904;20.648;2022-07-24T07:07:05;23;89
66150;DHT22;52952;50.904;20.648;2022-07-24T07:14:18;23;89
66150;DHT22;52952;50.904;20.648;2022-07-24T07:21:07;23;89
66150;DHT22;52952;50.904;20.648;2022-07-24T07:28:13;23;89
66150;DHT22;52952;50.904;20.648;2022-07-24T07:35:18;23;89
66150;DHT22;52952;50.904;20.648;2022-07-24T07:42:04;23;89
66150;DHT22;52952;50.904;20.648;2022-07-24T07:49:05;23;89
66150;DHT22;52952;50.904;20.648;2022-07-24T07:56:17;23;89
66150;DHT22;52952;50.904;20.648;2022-07-24T08:00:09;23;89
66150;DHT22;52952;50.904;20.648;2022-07-24T08:07:14;23;91
66150;DHT22;52952;50.904;20.648;2022-07-24T08:14:13;23;91
66150;DHT22;52952;50.904;20.648;2022-07-24T08:21:18;23;91
66150;DHT22;52952;50.904;20.648;2022-07-24T08:28:19;23;91
66150;DHT22;52952;50.904;20.648;2022-07-24T08:42:03;22;91
66150;DHT22;52952;50.904;20.648;2022-07-24T08:49:06;22;91
66150;DHT22;52952;50.904;20.648;2022-07-24T08:56:06;22;91
66150;DHT22;52952;50.904;20.648;2022-07-24T09:00:13;22;91
66150;DHT22;52952;50.904;20.648;2022-07-24T09:14:48;22;92
66150;DHT22;52952;50.904;20.648;2022-07-24T09:21:20;22;92
66150;DHT22;52952;50.904;20.648;2022-07-24T09:28:04;22;92
66150;DHT22;52952;50.904;20.648;2022-07-24T09:35:15;22;92
66150;DHT22;52952;50.904;20.648;2022-07-24T09:42:14;22;92
66150;DHT22;52952;50.904;20.648;2022-07-24T09:49:29;22;92
66150;DHT22;52952;50.904;20.648;2022-07-24T09:56:23;22;92
66150;DHT22;52952;50.904;20.648;2022-07-24T10:00:09;22;92
66150;DHT22;52952;50.904;20.648;2022-07-24T10:14:03;22;93
66150;DHT22;52952;50.904;20.648;2022-07-24T10:21:07;22;93
66150;DHT22;52952;50.904;20.648;2022-07-24T10:28:30;22;93
66150;DHT22;52952;50.904;20.648;2022-07-24T10:42:08;21;93
66150;DHT22;52952;50.904;20.648;2022-07-24T10:49:03;21;93
66150;DHT22;52952;50.904;20.648;2022-07-24T10:56:26;21;93
66150;DHT22;52952;50.904;20.648;2022-07-24T11:00:44;21;93
66150;DHT22;52952;50.904;20.648;2022-07-24T11:14:05;21;93
66150;DHT22;52952;50.904;20.648;2022-07-24T11:21:27;21;93
66150;DHT22;52952;50.904;20.648;2022-07-24T11:28:13;21;93
66150;DHT22;52952;50.904;20.648;2022-07-24T11:42:15;21;93
66150;DHT22;52952;50.904;20.648;2022-07-24T11:49:20;21;93
66150;DHT22;52952;50.904;20.648;2022-07-24T11:56:18;21;93
66150;DHT22;52952;50.904;20.648;2022-07-24T12:00:20;21;93
66150;DHT22;52952;50.904;20.648;2022-07-24T12:14:26;22;94
66150;DHT22;52952;50.904;20.648;2022-07-24T12:21:21;22;94
66150;DHT22;52952;50.904;20.648;2022-07-24T12:28:11;22;94
66150;DHT22;52952;50.904;20.648;2022-07-24T12:35:13;22;94
66150;DHT22;52952;50.904;20.648;2022-07-24T12:42:32;23;93
66150;DHT22;52952;50.904;20.648;2022-07-24T12:49:47;23;93
66150;DHT22;52952;50.904;20.648;2022-07-24T12:56:17;23;93
66150;DHT22;52952;50.904;20.648;2022-07-24T13:00:16;23;93
66150;DHT22;52952;50.904;20.648;2022-07-24T13:14:14;24;89
66150;DHT22;52952;50.904;20.648;2022-07-24T13:21:05;24;89
66150;DHT22;52952;50.904;20.648;2022-07-24T13:28:05;24;89
66150;DHT22;52952;50.904;20.648;2022-07-24T13:35:17;24;89
66150;DHT22;52952;50.904;20.648;2022-07-24T13:42:18;25;83
66150;DHT22;52952;50.904;20.648;2022-07-24T13:49:17;25;83
66150;DHT22;52952;50.904;20.648;2022-07-24T13:56:12;25;83
66150;DHT22;52952;50.904;20.648;2022-07-24T14:00:01;25;83
66150;DHT22;52952;50.904;20.648;2022-07-24T14:07:04;25;83
66150;DHT22;52952;50.904;20.648;2022-07-24T14:14:07;26;80
66150;DHT22;52952;50.904;20.648;2022-07-24T14:21:02;26;80
66150;DHT22;52952;50.904;20.648;2022-07-24T14:28:26;26;80
66150;DHT22;52952;50.904;20.648;2022-07-24T14:35:20;26;80
66150;DHT22;52952;50.904;20.648;2022-07-24T14:42:18;23;72
66150;DHT22;52952;50.904;20.648;2022-07-24T14:49:22;23;72
66150;DHT22;52952;50.904;20.648;2022-07-24T14:56:14;23;72
66150;DHT22;52952;50.904;20.648;2022-07-24T15:00:01;23;72
66150;DHT22;52952;50.904;20.648;2022-07-24T15:07:23;23;72
66150;DHT22;52952;50.904;20.648;2022-07-24T15:14:16;23;72
66150;DHT22;52952;50.904;20.648;2022-07-24T15:21:18;23;72
66150;DHT22;52952;50.904;20.648;2022-07-24T15:28:02;23;72
66150;DHT22;52952;50.904;20.648;2022-07-24T15:42:05;23;72
66150;DHT22;52952;50.904;20.648;2022-07-24T15:49:18;23;72
66150;DHT22;52952;50.904;20.648;2022-07-24T15:56:15;23;72
66150;DHT22;52952;50.904;20.648;2022-07-24T16:00:10;23;72
66150;DHT22;52952;50.904;20.648;2022-07-24T16:07:02;23;72
66150;DHT22;52952;50.904;20.648;2022-07-24T16:14:16;23;73
66150;DHT22;52952;50.904;20.648;2022-07-24T16:21:05;23;73
66150;DHT22;52952;50.904;20.648;2022-07-24T16:28:15;23;73
66150;DHT22;52952;50.904;20.648;2022-07-24T16:35:16;23;73
66150;DHT22;52952;50.904;20.648;2022-07-24T16:42:03;23;73
66150;DHT22;52952;50.904;20.648;2022-07-24T16:49:05;23;73
66150;DHT22;52952;50.904;20.648;2022-07-24T16:56:14;23;73
66150;DHT22;52952;50.904;20.648;2022-07-24T17:00:21;23;73
66150;DHT22;52952;50.904;20.648;2022-07-24T17:07:02;23;73
66150;DHT22;52952;50.904;20.648;2022-07-24T17:21:05;23;73
66150;DHT22;52952;50.904;20.648;2022-07-24T17:28:04;23;73
66150;DHT22;52952;50.904;20.648;2022-07-24T17:35:18;23;73
66150;DHT22;52952;50.904;20.648;2022-07-24T17:49:04;23;73
66150;DHT22;52952;50.904;20.648;2022-07-24T17:56:04;23;73
66150;DHT22;52952;50.904;20.648;2022-07-24T18:00:25;23;73
66150;DHT22;52952;50.904;20.648;2022-07-24T18:07:03;23;73
66150;DHT22;52952;50.904;20.648;2022-07-24T18:21:05;23;72
66150;DHT22;52952;50.904;20.648;2022-07-24T18:28:17;23;72
66150;DHT22;52952;50.904;20.648;2022-07-24T18:35:07;23;72
66150;DHT22;52952;50.904;20.648;2022-07-24T18:49:28;23;72
66150;DHT22;52952;50.904;20.648;2022-07-24T18:56:19;23;72
66150;DHT22;52952;50.904;20.648;2022-07-24T19:00:18;23;72
66150;DHT22;52952;50.904;20.648;2022-07-24T19:07:24;23;72
66150;DHT22;52952;50.904;20.648;2022-07-24T19:21:20;23;72
66150;DHT22;52952;50.904;20.648;2022-07-24T19:28:13;23;72
66150;DHT22;52952;50.904;20.648;2022-07-24T19:35:19;23;72
66150;DHT22;52952;50.904;20.648;2022-07-24T19:49:19;23;72
66150;DHT22;52952;50.904;20.648;2022-07-24T19:56:02;23;72
66150;DHT22;52952;50.904;20.648;2022-07-24T20:00:03;23;72
66150;DHT22;52952;50.904;20.648;2022-07-24T20:07:18;23;72
66150;DHT22;52952;50.904;20.648;2022-07-24T20:21:14;23;72
66150;DHT22;52952;50.904;20.648;2022-07-24T20:28:05;23;72
66150;DHT22;52952;50.904;20.648;2022-07-24T20:35:17;23;72
66150;DHT22;52952;50.904;20.648;2022-07-24T20:49:04;23;72
66150;DHT22;52952;50.904;20.648;2022-07-24T20:56:17;23;72
66150;DHT22;52952;50.904;20.648;2022-07-24T21:00:12;23;72
66150;DHT22;52952;50.904;20.648;2022-07-24T21:07:02;23;72
66150;DHT22;52952;50.904;20.648;2022-07-24T21:21:03;23;73
66150;DHT22;52952;50.904;20.648;2022-07-24T21:28:16;23;73
66150;DHT22;52952;50.904;20.648;2022-07-24T21:35:18;23;73
66150;DHT22;52952;50.904;20.648;2022-07-24T21:49:04;23;73
66150;DHT22;52952;50.904;20.648;2022-07-24T21:56:03;23;73
66150;DHT22;52952;50.904;20.648;2022-07-24T22:00:03;23;73
66150;DHT22;52952;50.904;20.648;2022-07-24T22:07:05;23;73
66150;DHT22;52952;50.904;20.648;2022-07-24T22:14:02;23;74
66150;DHT22;52952;50.904;20.648;2022-07-24T22:21:04;23;74
66150;DHT22;52952;50.904;20.648;2022-07-24T22:28:04;23;74
66150;DHT22;52952;50.904;20.648;2022-07-24T22:35:15;23;74
66150;DHT22;52952;50.904;20.648;2022-07-24T22:42:15;23;74
66150;DHT22;52952;50.904;20.648;2022-07-24T22:49:27;23;74
66150;DHT22;52952;50.904;20.648;2022-07-24T22:56:18;23;74
66150;DHT22;52952;50.904;20.648;2022-07-24T23:07:17;23;74
66150;DHT22;52952;50.904;20.648;2022-07-24T23:14:16;23;74
66150;DHT22;52952;50.904;20.648;2022-07-24T23:21:04;23;74
66150;DHT22;52952;50.904;20.648;2022-07-24T23:28:15;23;74
66150;DHT22;52952;50.904;20.648;2022-07-24T23:35:09;23;74
66150;DHT22;52952;50.904;20.648;2022-07-24T23:42:07;23;74
66150;DHT22;52952;50.904;20.648;2022-07-24T23:49:20;23;74
66150;DHT22;52952;50.904;20.648;2022-07-24T23:56:14;23;74
